createdAt,value
2023-02-14T00:01:12.898Z,0.12
2023-02-14T00:03:39.596Z,0.18
2023-02-14T00:06:07.084Z,0.04
2023-02-14T00:08:33.557Z,-0.02
2023-02-14T00:11:00.324Z,0.10
2023-02-14T00:13:27.056Z,0.14
2023-02-14T00:15:56.156Z,0.10
2023-02-14T00:18:23.080Z,-0.21
2023-02-14T00:20:49.536Z,-0.27
2023-02-14T00:23:16.030Z,-0.15
2023-02-14T00:25:42.517Z,-0.28
2023-02-14T00:28:08.974Z,-0.48
2023-02-14T00:30:35.497Z,-0.50
2023-02-14T00:33:03.156Z,-0.40
2023-02-14T00:35:30.768Z,-0.60
2023-02-14T00:37:57.246Z,-0.61
2023-02-14T00:40:23.788Z,-0.58
2023-02-14T00:42:50.227Z,-0.45
2023-02-14T00:45:19.051Z,-0.47
2023-02-14T00:47:45.512Z,-0.50
2023-02-14T00:50:12.865Z,-0.41
2023-02-14T00:52:39.354Z,-0.20
2023-02-14T00:55:06.289Z,0.03
2023-02-14T00:57:32.779Z,0.22
2023-02-14T00:59:59.252Z,0.34
2023-02-14T01:02:25.760Z,0.50
2023-02-14T01:04:52.286Z,0.49
2023-02-14T01:07:18.807Z,0.52
2023-02-14T01:09:45.283Z,0.67
2023-02-14T01:12:11.712Z,0.00
2023-02-14T01:14:39.272Z,-0.47
2023-02-14T01:17:07.602Z,-0.55
2023-02-14T01:19:34.105Z,-0.41
2023-02-14T01:22:00.687Z,-0.41
2023-02-14T01:24:27.280Z,-0.93
2023-02-14T01:26:53.773Z,-0.91
2023-02-14T01:29:20.252Z,-0.68
2023-02-14T01:31:49.165Z,-0.85
2023-02-14T01:34:16.910Z,-0.97
2023-02-14T01:36:43.429Z,-0.88
2023-02-14T01:39:14.061Z,-0.76
2023-02-14T01:41:42.963Z,-0.64
2023-02-14T01:44:15.216Z,-0.87
2023-02-14T01:46:43.813Z,-0.81
2023-02-14T01:49:11.647Z,-0.69
2023-02-14T01:51:42.397Z,-0.45
2023-02-14T01:54:10.950Z,-0.56
2023-02-14T01:56:49.564Z,-0.90
2023-02-14T01:59:19.595Z,-0.99
2023-02-14T02:01:48.797Z,-0.80
2023-02-14T02:04:17.629Z,-0.83
2023-02-14T02:06:48.656Z,-0.78
2023-02-14T02:09:24.137Z,-0.76
2023-02-14T02:11:50.640Z,-0.77
2023-02-14T02:14:18.479Z,-0.86
2023-02-14T02:17:04.373Z,-0.84
2023-02-14T02:19:34.851Z,-0.77
2023-02-14T02:22:16.585Z,-0.70
2023-02-14T02:24:52.214Z,-1.17
2023-02-14T02:27:26.474Z,-1.09
2023-02-14T02:30:13.994Z,-0.99
2023-02-14T02:32:59.293Z,-0.94
2023-02-14T02:35:25.922Z,-0.98
2023-02-14T02:38:10.906Z,-0.95
2023-02-14T02:40:43.404Z,-0.88
2023-02-14T02:43:22.885Z,-0.99
2023-02-14T02:46:17.168Z,-1.28
2023-02-14T02:49:06.709Z,-1.50
2023-02-14T02:52:12.837Z,-1.32
2023-02-14T02:54:44.254Z,-1.47
2023-02-14T02:57:15.136Z,-1.61
2023-02-14T02:59:42.928Z,-1.63
2023-02-14T03:02:15.524Z,-1.46
2023-02-14T03:04:53.309Z,-1.65
2023-02-14T03:07:40.923Z,-1.69
2023-02-14T03:10:15.285Z,-1.68
2023-02-14T03:12:41.741Z,-1.54
2023-02-14T03:15:12.619Z,-1.55
2023-02-14T03:17:47.532Z,-1.46
2023-02-14T03:20:19.148Z,-1.55
2023-02-14T03:22:46.761Z,-1.59
2023-02-14T03:25:16.627Z,-1.43
2023-02-14T03:27:51.318Z,-1.44
2023-02-14T03:30:21.552Z,-1.35
2023-02-14T03:33:02.168Z,-1.41
2023-02-14T03:35:31.444Z,-1.48
2023-02-14T03:37:59.062Z,-1.55
2023-02-14T03:40:27.855Z,-1.85
2023-02-14T03:42:59.742Z,-1.88
2023-02-14T03:45:42.487Z,-1.92
2023-02-14T03:48:11.140Z,-1.90
2023-02-14T03:50:38.213Z,-1.77
2023-02-14T03:53:07.762Z,-1.85
2023-02-14T03:55:41.964Z,-1.82
2023-02-14T03:58:17.007Z,-1.78
2023-02-14T04:00:45.252Z,-1.71
2023-02-14T04:03:14.428Z,-1.63
2023-02-14T04:05:43.856Z,-1.71
2023-02-14T04:08:11.290Z,-2.00
2023-02-14T04:10:40.085Z,-2.09
2023-02-14T04:13:06.593Z,-2.02
2023-02-14T04:15:34.108Z,-1.86
2023-02-14T04:18:18.920Z,-1.73
2023-02-14T04:20:45.375Z,-1.66
2023-02-14T04:23:13.154Z,-1.69
2023-02-14T04:25:42.022Z,-1.85
2023-02-14T04:28:09.171Z,-1.73
2023-02-14T04:30:35.712Z,-1.64
2023-02-14T04:33:04.067Z,-1.86
2023-02-14T04:35:30.592Z,-2.00
2023-02-14T04:37:57.104Z,-2.02
2023-02-14T04:40:24.903Z,-1.91
2023-02-14T04:42:52.579Z,-1.77
2023-02-14T04:45:19.438Z,-1.98
2023-02-14T04:47:45.933Z,-2.02
2023-02-14T04:50:12.859Z,-2.05
2023-02-14T04:52:39.632Z,-1.83
2023-02-14T04:55:06.368Z,-2.19
2023-02-14T04:57:34.126Z,-2.25
2023-02-14T05:00:00.582Z,-2.25
2023-02-14T05:02:27.217Z,-2.39
2023-02-14T05:04:53.720Z,-2.55
2023-02-14T05:07:20.233Z,-2.40
2023-02-14T05:09:46.775Z,-2.36
2023-02-14T05:12:13.281Z,-2.29
2023-02-14T05:14:39.826Z,-2.73
2023-02-14T05:17:06.904Z,-2.70
2023-02-14T05:19:33.466Z,-2.77
2023-02-14T05:21:59.948Z,-2.81
2023-02-14T05:24:27.481Z,-2.79
2023-02-14T05:26:55.575Z,-2.65
2023-02-14T05:29:22.132Z,-2.50
2023-02-14T05:31:49.901Z,-2.49
2023-02-14T05:34:16.475Z,-2.56
2023-02-14T05:36:43.014Z,-2.58
2023-02-14T05:39:09.679Z,-2.68
2023-02-14T05:41:36.258Z,-2.70
2023-02-14T05:44:02.732Z,-2.52
2023-02-14T05:46:29.274Z,-2.48
2023-02-14T05:48:55.789Z,-2.54
2023-02-14T05:51:22.373Z,-2.49
2023-02-14T05:53:48.855Z,-2.53
2023-02-14T05:56:16.630Z,-2.54
2023-02-14T05:58:44.905Z,-2.78
2023-02-14T06:01:11.413Z,-2.87
2023-02-14T06:03:37.903Z,-2.82
2023-02-14T06:06:04.457Z,-2.70
2023-02-14T06:08:30.979Z,-2.59
2023-02-14T06:10:57.606Z,-2.60
2023-02-14T06:13:24.951Z,-2.63
2023-02-14T06:15:52.627Z,-2.59
2023-02-14T06:18:19.228Z,-2.50
2023-02-14T06:20:45.693Z,-2.56
2023-02-14T06:23:12.385Z,-2.56
2023-02-14T06:25:38.942Z,-2.51
2023-02-14T06:28:08.120Z,-2.41
2023-02-14T06:30:35.981Z,-2.70
2023-02-14T06:33:02.524Z,-2.88
2023-02-14T06:35:28.976Z,-2.85
2023-02-14T06:37:55.486Z,-2.60
2023-02-14T06:40:22.020Z,-2.75
2023-02-14T06:42:48.531Z,-2.74
2023-02-14T06:45:15.011Z,-2.55
2023-02-14T06:47:42.869Z,-2.48
2023-02-14T06:50:12.942Z,-2.58
2023-02-14T06:52:39.688Z,-2.73
2023-02-14T06:55:06.956Z,-3.02
2023-02-14T06:57:33.434Z,-3.17
2023-02-14T06:59:59.996Z,-3.21
2023-02-14T07:02:26.621Z,-3.19
2023-02-14T07:04:53.211Z,-2.99
2023-02-14T07:07:19.723Z,-2.93
2023-02-14T07:09:46.203Z,-3.00
2023-02-14T07:12:12.699Z,-3.09
2023-02-14T07:14:39.749Z,-3.09
2023-02-14T07:17:07.000Z,-2.96
2023-02-14T07:19:33.464Z,-3.03
2023-02-14T07:22:00.010Z,-2.93
2023-02-14T07:24:27.514Z,-3.05
2023-02-14T07:26:53.977Z,-3.07
2023-02-14T07:29:21.838Z,-2.90
2023-02-14T07:31:49.716Z,-2.94
2023-02-14T07:34:16.332Z,-2.85
2023-02-14T07:36:45.377Z,-2.83
2023-02-14T07:39:11.867Z,-2.93
2023-02-14T07:41:38.344Z,-2.94
2023-02-14T07:44:04.911Z,-2.77
2023-02-14T07:46:31.462Z,-2.77
2023-02-14T07:48:57.999Z,-2.58
2023-02-14T07:51:24.502Z,-2.34
2023-02-14T07:53:52.136Z,-2.11
2023-02-14T07:56:18.629Z,-2.05
2023-02-14T07:58:45.494Z,-2.00
2023-02-14T08:01:12.048Z,-2.01
2023-02-14T08:03:38.561Z,-1.94
2023-02-14T08:06:06.600Z,-1.81
2023-02-14T08:08:33.194Z,-1.77
2023-02-14T08:11:00.035Z,-1.67
2023-02-14T08:13:26.804Z,-1.60
2023-02-14T08:16:06.527Z,-1.52
2023-02-14T08:18:37.862Z,-1.39
2023-02-14T08:21:05.100Z,-1.34
2023-02-14T08:23:33.041Z,-1.22
2023-02-14T08:25:59.626Z,-1.15
2023-02-14T08:28:27.851Z,-1.05
2023-02-14T08:30:55.773Z,-1.02
2023-02-14T08:33:22.786Z,-0.95
2023-02-14T08:35:50.682Z,-0.89
2023-02-14T08:38:17.150Z,-0.82
2023-02-14T08:40:43.725Z,-0.72
2023-02-14T08:43:10.293Z,-0.70
2023-02-14T08:45:37.441Z,-0.64
2023-02-14T08:48:05.708Z,-0.54
2023-02-14T08:50:32.541Z,-0.49
2023-02-14T08:52:59.040Z,-0.41
2023-02-14T08:55:26.825Z,-0.28
2023-02-14T08:57:57.249Z,-0.16
2023-02-14T09:00:23.737Z,-0.10
2023-02-14T09:02:51.725Z,-0.07
2023-02-14T09:05:18.920Z,-0.01
2023-02-14T09:07:45.536Z,0.04
2023-02-14T09:10:12.269Z,0.18
2023-02-14T09:12:39.702Z,0.26
2023-02-14T09:15:06.507Z,0.24
2023-02-14T09:17:34.277Z,0.20
2023-02-14T09:20:00.845Z,0.27
2023-02-14T09:22:27.416Z,0.37
2023-02-14T09:24:55.000Z,0.49
2023-02-14T09:27:21.454Z,0.66
2023-02-14T09:29:49.209Z,0.86
2023-02-14T09:32:15.891Z,0.93
2023-02-14T09:35:02.450Z,1.02
2023-02-14T09:37:28.898Z,1.15
2023-02-14T09:39:55.388Z,1.32
2023-02-14T09:42:40.596Z,1.50
2023-02-14T09:45:11.873Z,1.61
2023-02-14T09:47:44.463Z,1.68
2023-02-14T09:50:31.598Z,1.75
2023-02-14T09:53:01.922Z,1.85
2023-02-14T09:55:34.390Z,1.94
2023-02-14T09:58:06.583Z,2.00
2023-02-14T10:00:45.841Z,2.07
2023-02-14T10:03:31.661Z,2.14
2023-02-14T10:06:10.366Z,2.24
2023-02-14T10:08:46.700Z,2.32
2023-02-14T10:11:15.650Z,2.38
2023-02-14T10:13:50.493Z,2.47
2023-02-14T10:16:25.763Z,2.61
2023-02-14T10:18:53.254Z,2.73
2023-02-14T10:21:30.976Z,2.82
2023-02-14T10:24:06.765Z,2.92
2023-02-14T10:26:41.261Z,2.84
2023-02-14T10:29:14.528Z,2.89
2023-02-14T10:31:45.050Z,3.01
2023-02-14T10:34:17.581Z,3.09
2023-02-14T10:37:03.713Z,3.16
2023-02-14T10:39:42.218Z,3.24
2023-02-14T10:42:10.042Z,3.32
2023-02-14T10:44:42.702Z,3.41
2023-02-14T10:47:27.944Z,3.51
2023-02-14T10:49:57.156Z,3.63
2023-02-14T10:52:39.937Z,3.74
2023-02-14T10:55:20.261Z,3.86
2023-02-14T10:57:57.070Z,3.98
2023-02-14T11:00:26.101Z,4.10
2023-02-14T11:02:56.639Z,4.19
2023-02-14T11:05:26.096Z,4.25
2023-02-14T11:07:52.777Z,4.34
2023-02-14T11:10:24.374Z,4.46
2023-02-14T11:12:51.165Z,4.57
2023-02-14T11:15:23.897Z,4.64
2023-02-14T11:17:52.023Z,4.73
2023-02-14T11:20:18.501Z,4.80
2023-02-14T11:22:44.957Z,4.88
2023-02-14T11:25:28.702Z,4.94
2023-02-14T11:27:58.677Z,5.00
2023-02-14T11:30:28.418Z,5.06
2023-02-14T11:32:57.586Z,5.14
2023-02-14T11:35:27.613Z,5.20
2023-02-14T11:37:55.672Z,5.23
2023-02-14T11:40:34.757Z,5.26
2023-02-14T11:43:18.736Z,5.03
2023-02-14T11:45:47.656Z,4.93
2023-02-14T11:48:34.909Z,5.05
2023-02-14T11:51:14.976Z,5.28
2023-02-14T11:53:47.166Z,5.39
2023-02-14T11:56:14.410Z,5.48
2023-02-14T11:58:47.919Z,5.55
2023-02-14T12:01:22.441Z,5.63
2023-02-14T12:03:49.530Z,5.67
2023-02-14T12:06:31.616Z,5.66
2023-02-14T12:09:11.349Z,5.70
2023-02-14T12:11:37.873Z,5.79
2023-02-14T12:14:05.834Z,5.86
2023-02-14T12:16:47.599Z,5.87
2023-02-14T12:19:18.387Z,5.93
2023-02-14T12:22:06.064Z,6.07
2023-02-14T12:24:33.570Z,6.13
2023-02-14T12:27:10.542Z,6.16
2023-02-14T12:29:43.673Z,6.25
2023-02-14T12:32:30.445Z,6.25
2023-02-14T12:35:03.404Z,6.33
2023-02-14T12:37:35.732Z,6.41
2023-02-14T12:40:11.221Z,6.44
2023-02-14T12:42:38.186Z,6.11
2023-02-14T12:45:07.446Z,6.00
2023-02-14T12:47:48.033Z,6.10
2023-02-14T12:50:28.322Z,6.32
2023-02-14T12:53:13.481Z,6.45
2023-02-14T12:55:58.460Z,6.23
2023-02-14T12:58:27.932Z,6.04
2023-02-14T13:00:55.600Z,6.12
2023-02-14T13:03:22.014Z,6.31
2023-02-14T13:06:00.895Z,6.36
2023-02-14T13:08:27.344Z,6.04
2023-02-14T13:10:57.848Z,5.96
2023-02-14T13:13:44.286Z,6.08
2023-02-14T13:16:19.365Z,6.35
2023-02-14T13:18:54.677Z,6.36
2023-02-14T13:21:26.642Z,6.30
2023-02-14T13:23:56.473Z,6.37
2023-02-14T13:26:25.720Z,6.55
2023-02-14T13:29:10.469Z,6.62
2023-02-14T13:31:39.726Z,6.38
2023-02-14T13:34:09.319Z,6.36
2023-02-14T13:36:38.172Z,6.62
2023-02-14T13:39:04.913Z,6.55
2023-02-14T13:41:31.668Z,6.55
2023-02-14T13:44:00.182Z,6.78
2023-02-14T13:46:32.509Z,6.99
2023-02-14T13:49:03.702Z,6.75
2023-02-14T13:51:45.639Z,6.57
2023-02-14T13:54:27.325Z,6.70
2023-02-14T13:56:53.932Z,6.70
2023-02-14T13:59:26.266Z,6.63
2023-02-14T14:01:53.369Z,6.70
2023-02-14T14:04:28.901Z,6.77
2023-02-14T14:07:04.480Z,6.63
2023-02-14T14:09:43.153Z,6.72
2023-02-14T14:12:29.164Z,6.82
2023-02-14T14:15:06.385Z,6.77
2023-02-14T14:17:37.931Z,6.86
2023-02-14T14:20:16.706Z,6.81
2023-02-14T14:22:52.331Z,6.76
2023-02-14T14:25:31.110Z,6.93
2023-02-14T14:27:58.475Z,6.75
2023-02-14T14:30:33.556Z,6.78
2023-02-14T14:33:13.489Z,6.85
2023-02-14T14:35:40.021Z,6.54
2023-02-14T14:38:07.822Z,6.51
2023-02-14T14:40:35.745Z,6.67
2023-02-14T14:43:08.274Z,6.57
2023-02-14T14:45:34.820Z,6.45
2023-02-14T14:48:07.952Z,6.62
2023-02-14T14:50:35.363Z,6.01
2023-02-14T14:53:03.897Z,5.49
2023-02-14T14:55:31.766Z,5.65
2023-02-14T14:58:01.356Z,5.33
2023-02-14T15:00:30.630Z,5.08
2023-02-14T15:02:57.226Z,5.40
2023-02-14T15:05:26.221Z,5.03
2023-02-14T15:07:53.183Z,5.02
2023-02-14T15:10:31.029Z,5.11
2023-02-14T15:13:17.938Z,4.81
2023-02-14T15:15:49.273Z,4.88
2023-02-14T15:18:17.046Z,4.60
2023-02-14T15:20:48.166Z,4.06
2023-02-14T15:23:16.829Z,4.28
2023-02-14T15:25:45.783Z,3.93
2023-02-14T15:28:17.400Z,3.80
2023-02-14T15:30:45.175Z,3.75
2023-02-14T15:33:12.271Z,3.32
2023-02-14T15:35:43.632Z,3.41
2023-02-14T15:38:11.692Z,3.20
2023-02-14T15:40:40.137Z,2.95
2023-02-14T15:43:18.817Z,3.09
2023-02-14T15:45:48.523Z,2.74
2023-02-14T15:48:35.378Z,2.68
2023-02-14T15:51:02.889Z,2.58
2023-02-14T15:53:34.593Z,2.25
2023-02-14T15:56:20.267Z,2.39
2023-02-14T15:58:46.993Z,2.25
2023-02-14T16:01:13.944Z,2.13
2023-02-14T16:03:43.781Z,2.28
2023-02-14T16:06:16.205Z,1.95
2023-02-14T16:08:43.113Z,1.85
2023-02-14T16:11:15.884Z,2.05
2023-02-14T16:13:43.654Z,1.71
2023-02-14T16:16:13.891Z,1.58
2023-02-14T16:18:47.968Z,1.76
2023-02-14T16:21:16.078Z,1.49
2023-02-14T16:23:44.750Z,1.19
2023-02-14T16:26:11.568Z,1.18
2023-02-14T16:28:38.620Z,1.04
2023-02-14T16:31:11.360Z,0.96
2023-02-14T16:33:39.711Z,1.04
2023-02-14T16:36:09.147Z,1.03
2023-02-14T16:38:41.439Z,0.74
2023-02-14T16:41:14.363Z,0.69
2023-02-14T16:43:40.909Z,0.66
2023-02-14T16:46:11.148Z,0.44
2023-02-14T16:48:37.621Z,0.29
2023-02-14T16:51:04.171Z,0.20
2023-02-14T16:53:31.305Z,0.22
2023-02-14T16:55:58.009Z,0.04
2023-02-14T16:58:27.268Z,-0.02
2023-02-14T17:00:53.746Z,0.01
2023-02-14T17:03:20.565Z,-0.23
2023-02-14T17:05:47.513Z,-0.09
2023-02-14T17:08:15.339Z,-0.11
2023-02-14T17:10:42.969Z,-0.27
2023-02-14T17:13:10.178Z,-0.35
2023-02-14T17:15:38.518Z,-0.18
2023-02-14T17:18:07.812Z,-0.34
2023-02-14T17:20:34.432Z,-0.29
2023-02-14T17:23:02.344Z,-0.17
2023-02-14T17:25:28.802Z,-0.40
2023-02-14T17:27:56.432Z,-0.50
2023-02-14T17:30:23.300Z,-0.40
2023-02-14T17:32:49.853Z,-0.66
2023-02-14T17:35:16.797Z,-0.74
2023-02-14T17:37:44.812Z,-0.50
2023-02-14T17:40:11.870Z,-0.85
2023-02-14T17:42:41.008Z,-1.22
2023-02-14T17:45:09.699Z,-1.08
2023-02-14T17:47:36.188Z,-0.97
2023-02-14T17:50:03.977Z,-0.90
2023-02-14T17:52:30.576Z,-0.98
2023-02-14T17:54:57.122Z,-1.17
2023-02-14T17:57:24.037Z,-1.45
2023-02-14T17:59:52.353Z,-1.31
2023-02-14T18:02:18.825Z,-1.08
2023-02-14T18:04:45.392Z,-1.11
2023-02-14T18:07:11.848Z,-1.16
2023-02-14T18:09:38.373Z,-1.11
2023-02-14T18:12:05.013Z,-1.19
2023-02-14T18:14:32.815Z,-1.21
2023-02-14T18:17:00.033Z,-1.41
2023-02-14T18:19:26.569Z,-1.28
2023-02-14T18:21:53.487Z,-1.38
2023-02-14T18:24:20.109Z,-1.44
2023-02-14T18:26:46.708Z,-1.59
2023-02-14T18:29:14.473Z,-1.45
2023-02-14T18:31:41.919Z,-1.69
2023-02-14T18:34:09.088Z,-1.79
2023-02-14T18:36:37.184Z,-1.74
2023-02-14T18:39:04.125Z,-1.73
2023-02-14T18:41:30.817Z,-1.99
2023-02-14T18:43:57.521Z,-1.86
2023-02-14T18:46:25.660Z,-1.70
2023-02-14T18:48:52.586Z,-1.68
2023-02-14T18:51:20.707Z,-1.83
2023-02-14T18:53:47.693Z,-1.68
2023-02-14T18:56:18.365Z,-1.70
2023-02-14T18:58:51.905Z,-1.66
2023-02-14T19:01:19.687Z,-1.89
2023-02-14T19:03:46.642Z,-1.87
2023-02-14T19:06:13.511Z,-1.86
2023-02-14T19:08:40.823Z,-1.73
2023-02-14T19:11:14.805Z,-1.76
2023-02-14T19:13:45.030Z,-1.69
2023-02-14T19:16:13.745Z,-1.80
2023-02-14T19:18:40.633Z,-1.78
2023-02-14T19:21:14.141Z,-1.68
2023-02-14T19:23:40.977Z,-1.75
2023-02-14T19:26:10.498Z,-1.79
2023-02-14T19:28:37.033Z,-1.76
2023-02-14T19:31:03.907Z,-1.68
2023-02-14T19:33:31.858Z,-1.72
2023-02-14T19:36:00.448Z,-1.91
2023-02-14T19:38:26.997Z,-1.99
2023-02-14T19:40:53.675Z,-2.06
2023-02-14T19:43:20.249Z,-2.26
2023-02-14T19:45:46.916Z,-2.32
2023-02-14T19:48:13.485Z,-2.20
2023-02-14T19:50:39.978Z,-2.27
2023-02-14T19:53:06.554Z,-2.21
2023-02-14T19:55:33.078Z,-2.09
2023-02-14T19:57:59.574Z,-2.08
2023-02-14T20:00:26.034Z,-2.19
2023-02-14T20:02:52.508Z,-2.11
2023-02-14T20:05:19.417Z,-2.16
2023-02-14T20:07:49.222Z,-2.06
2023-02-14T20:10:15.981Z,-2.30
2023-02-14T20:12:42.451Z,-2.41
2023-02-14T20:15:10.928Z,-2.45
2023-02-14T20:17:37.601Z,-2.30
2023-02-14T20:20:05.774Z,-2.53
2023-02-14T20:22:32.255Z,-2.49
2023-02-14T20:25:00.678Z,-2.44
2023-02-14T20:27:27.197Z,-2.50
2023-02-14T20:29:53.727Z,-2.42
2023-02-14T20:32:20.629Z,-2.48
2023-02-14T20:34:48.053Z,-2.46
2023-02-14T20:37:14.649Z,-2.40
2023-02-14T20:39:42.486Z,-2.49
2023-02-14T20:42:10.124Z,-2.34
2023-02-14T20:44:36.577Z,-2.27
2023-02-14T20:47:04.251Z,-2.24
2023-02-14T20:49:31.212Z,-1.98
2023-02-14T20:51:57.789Z,-1.87
2023-02-14T20:54:25.257Z,-1.61
2023-02-14T20:56:52.842Z,-1.65
2023-02-14T20:59:24.423Z,-1.57
2023-02-14T21:01:50.983Z,-1.47
2023-02-14T21:04:17.518Z,-1.48
2023-02-14T21:06:44.002Z,-1.49
2023-02-14T21:09:10.529Z,-1.55
2023-02-14T21:11:36.983Z,-1.47
2023-02-14T21:14:03.444Z,-1.48
2023-02-14T21:16:31.567Z,-1.42
2023-02-14T21:19:00.226Z,-1.26
2023-02-14T21:21:29.907Z,-1.08
2023-02-14T21:23:56.345Z,-1.02
2023-02-14T21:26:22.868Z,-0.98
2023-02-14T21:28:49.324Z,-0.89
2023-02-14T21:31:21.895Z,-0.88
2023-02-14T21:33:53.346Z,-0.98
2023-02-14T21:36:21.212Z,-1.05
2023-02-14T21:38:47.861Z,-0.94
2023-02-14T21:41:15.630Z,-0.92
2023-02-14T21:43:44.628Z,-1.06
2023-02-14T21:46:15.388Z,-1.09
2023-02-14T21:49:01.083Z,-0.93
2023-02-14T21:51:27.670Z,-0.96
2023-02-14T21:53:54.334Z,-1.02
2023-02-14T21:56:22.254Z,-0.99
2023-02-14T21:58:51.132Z,-0.82
2023-02-14T22:01:19.435Z,-0.92
2023-02-14T22:03:46.302Z,-0.95
2023-02-14T22:06:15.393Z,-0.93
2023-02-14T22:08:42.417Z,-0.78
2023-02-14T22:11:10.397Z,-0.87
2023-02-14T22:13:38.198Z,-0.88
2023-02-14T22:16:07.536Z,-0.77
2023-02-14T22:18:34.373Z,-0.63
2023-02-14T22:21:05.780Z,-0.72
2023-02-14T22:23:32.668Z,-0.78
2023-02-14T22:26:10.825Z,-0.72
2023-02-14T22:28:37.850Z,-0.64
2023-02-14T22:31:04.814Z,-0.67
2023-02-14T22:33:31.512Z,-0.61
2023-02-14T22:35:59.585Z,-0.50
2023-02-14T22:38:26.775Z,-0.46
2023-02-14T22:40:53.265Z,-0.54
2023-02-14T22:43:19.799Z,-0.59
2023-02-14T22:45:46.360Z,-0.49
2023-02-14T22:48:13.007Z,-0.43
2023-02-14T22:50:39.697Z,-0.47
2023-02-14T22:53:06.133Z,-0.43
2023-02-14T22:55:32.605Z,-0.38
2023-02-14T22:57:59.330Z,-0.28
2023-02-14T23:00:25.942Z,-0.36
2023-02-14T23:02:52.436Z,-0.38
2023-02-14T23:05:19.027Z,-0.33
2023-02-14T23:07:47.053Z,-0.21
2023-02-14T23:10:13.524Z,-0.23
2023-02-14T23:12:58.870Z,-0.26
2023-02-14T23:15:43.841Z,-0.22
2023-02-14T23:18:31.475Z,-0.13
2023-02-14T23:21:16.669Z,-0.09
2023-02-14T23:23:43.270Z,-0.11
2023-02-14T23:26:09.838Z,-0.10
2023-02-14T23:28:36.453Z,-0.02
2023-02-14T23:31:03.216Z,0.03
2023-02-14T23:33:31.338Z,0.02
2023-02-14T23:36:03.615Z,0.05
2023-02-14T23:38:30.175Z,0.09
2023-02-14T23:41:17.072Z,0.16
2023-02-14T23:43:43.549Z,-0.11
2023-02-14T23:46:10.130Z,-0.31
2023-02-14T23:48:38.339Z,-0.37
2023-02-14T23:51:05.092Z,-0.19
2023-02-14T23:53:31.629Z,-0.13
2023-02-14T23:56:00.811Z,-0.32
2023-02-14T23:58:27.498Z,-0.30
